sensor_id;sensor_type;location;lat;lon;timestamp;noise_LAeq;noise_LA_min;noise_LA_max;noise_LA01;noise_LA95
1754;Laerm;58380;48.312;9.246;2024-01-30T07:45:38;46.24;35.83;57.28;;
1754;Laerm;58380;48.312;9.246;2024-01-30T07:48:38;49.59;41.78;58.24;;
1754;Laerm;58380;48.312;9.246;2024-01-30T07:51:38;50.92;45.10;58.83;;
1754;Laerm;58380;48.312;9.246;2024-01-30T07:54:40;48.55;37.70;61.95;;
1754;Laerm;58380;48.312;9.246;2024-01-30T07:57:40;50.37;41.96;62.06;;
1754;Laerm;58380;48.312;9.246;2024-01-30T08:00:40;48.41;40.31;65.20;;
1754;Laerm;58380;48.312;9.246;2024-01-30T08:03:41;47.66;40.09;61.07;;
1754;Laerm;58380;48.312;9.246;2024-01-30T08:06:42;48.39;40.47;63.88;;
1754;Laerm;58380;48.312;9.246;2024-01-30T08:09:42;47.95;39.02;58.44;;
1754;Laerm;58380;48.312;9.246;2024-01-30T08:12:43;50.45;41.80;58.37;;
1754;Laerm;58380;48.312;9.246;2024-01-30T08:15:43;49.87;41.18;57.24;;
1754;Laerm;58380;48.312;9.246;2024-01-30T08:18:44;46.45;40.27;53.94;;
1754;Laerm;58380;48.312;9.246;2024-01-30T08:21:44;47.10;40.68;57.87;;
1754;Laerm;58380;48.312;9.246;2024-01-30T08:24:45;49.65;40.89;60.61;;
1754;Laerm;58380;48.312;9.246;2024-01-30T08:27:45;51.94;39.77;64.31;;
1754;Laerm;58380;48.312;9.246;2024-01-30T08:30:45;53.68;40.79;69.53;;
1754;Laerm;58380;48.312;9.246;2024-01-30T08:33:46;49.08;39.71;62.88;;
1754;Laerm;58380;48.312;9.246;2024-01-30T08:36:46;49.16;37.95;63.33;;
1754;Laerm;58380;48.312;9.246;2024-01-30T08:39:47;51.87;36.36;66.48;;
1754;Laerm;58380;48.312;9.246;2024-01-30T08:42:47;46.65;38.20;64.02;;
1754;Laerm;58380;48.312;9.246;2024-01-30T08:45:47;46.25;38.69;58.52;;
1754;Laerm;58380;48.312;9.246;2024-01-30T08:48:48;46.04;38.52;57.89;;
1754;Laerm;58380;48.312;9.246;2024-01-30T08:51:48;46.83;37.23;65.12;;
1754;Laerm;58380;48.312;9.246;2024-01-30T08:54:50;48.28;35.19;65.62;;
1754;Laerm;58380;48.312;9.246;2024-01-30T08:57:51;51.60;40.37;64.58;;
1754;Laerm;58380;48.312;9.246;2024-01-30T09:00:52;51.53;40.61;65.60;;
1754;Laerm;58380;48.312;9.246;2024-01-30T09:03:53;53.61;40.76;83.17;;
1754;Laerm;58380;48.312;9.246;2024-01-30T09:06:53;48.88;40.72;61.20;;
1754;Laerm;58380;48.312;9.246;2024-01-30T09:09:53;45.52;38.91;58.77;;
1754;Laerm;58380;48.312;9.246;2024-01-30T09:12:54;47.25;39.85;61.47;;
1754;Laerm;58380;48.312;9.246;2024-01-30T09:15:54;47.45;38.96;59.36;;
1754;Laerm;58380;48.312;9.246;2024-01-30T09:18:56;45.86;38.95;59.66;;
1754;Laerm;58380;48.312;9.246;2024-01-30T09:21:56;46.90;38.18;53.85;;
1754;Laerm;58380;48.312;9.246;2024-01-30T09:24:57;48.54;38.52;75.70;;
1754;Laerm;58380;48.312;9.246;2024-01-30T09:27:59;46.44;38.71;55.34;;
1754;Laerm;58380;48.312;9.246;2024-01-30T09:31:02;48.65;37.59;58.05;;
1754;Laerm;58380;48.312;9.246;2024-01-30T09:34:02;42.64;34.32;52.39;;
1754;Laerm;58380;48.312;9.246;2024-01-30T09:37:03;47.29;41.00;54.48;;
1754;Laerm;58380;48.312;9.246;2024-01-30T09:40:04;46.98;38.84;54.96;;
1754;Laerm;58380;48.312;9.246;2024-01-30T09:43:05;47.90;40.16;56.04;;
1754;Laerm;58380;48.312;9.246;2024-01-30T09:46:12;48.88;38.59;59.76;;
1754;Laerm;58380;48.312;9.246;2024-01-30T09:49:13;47.36;39.12;71.02;;
1754;Laerm;58380;48.312;9.246;2024-01-30T09:52:14;49.28;38.86;67.16;;
1754;Laerm;58380;48.312;9.246;2024-01-30T09:55:15;45.17;38.06;58.18;;
1754;Laerm;58380;48.312;9.246;2024-01-30T09:58:16;46.52;36.70;58.38;;
1754;Laerm;58380;48.312;9.246;2024-01-30T10:01:18;47.80;37.13;59.03;;
1754;Laerm;58380;48.312;9.246;2024-01-30T10:04:19;47.55;41.71;54.92;;
1754;Laerm;58380;48.312;9.246;2024-01-30T10:07:19;46.22;36.94;58.07;;
1754;Laerm;58380;48.312;9.246;2024-01-30T10:10:24;46.84;38.63;71.40;;
1754;Laerm;58380;48.312;9.246;2024-01-30T10:13:25;45.41;37.72;65.51;;
1754;Laerm;58380;48.312;9.246;2024-01-30T10:16:25;47.60;36.41;60.00;;
1754;Laerm;58380;48.312;9.246;2024-01-30T10:19:26;45.84;36.68;64.80;;
1754;Laerm;58380;48.312;9.246;2024-01-30T10:22:27;46.45;39.08;54.63;;
1754;Laerm;58380;48.312;9.246;2024-01-30T10:25:27;51.84;37.46;70.36;;
1754;Laerm;58380;48.312;9.246;2024-01-30T10:28:27;45.48;36.24;60.63;;
1754;Laerm;58380;48.312;9.246;2024-01-30T10:31:30;45.79;34.47;62.11;;
1754;Laerm;58380;48.312;9.246;2024-01-30T10:34:32;59.17;36.69;77.70;;
1754;Laerm;58380;48.312;9.246;2024-01-30T10:37:32;42.24;35.97;58.38;;
1754;Laerm;58380;48.312;9.246;2024-01-30T10:40:33;46.02;38.48;59.11;;
1754;Laerm;58380;48.312;9.246;2024-01-30T10:43:40;46.60;35.20;61.84;;
1754;Laerm;58380;48.312;9.246;2024-01-30T10:46:45;44.75;34.54;59.11;;
1754;Laerm;58380;48.312;9.246;2024-01-30T10:49:52;46.94;37.36;62.23;;
1754;Laerm;58380;48.312;9.246;2024-01-30T10:52:54;41.92;33.72;59.19;;
1754;Laerm;58380;48.312;9.246;2024-01-30T10:55:58;52.37;35.30;84.42;;
1754;Laerm;58380;48.312;9.246;2024-01-30T10:58:59;49.72;36.01;79.81;;
1754;Laerm;58380;48.312;9.246;2024-01-30T11:02:01;46.26;39.25;57.39;;
1754;Laerm;58380;48.312;9.246;2024-01-30T11:05:04;47.41;40.11;58.47;;
1754;Laerm;58380;48.312;9.246;2024-01-30T11:08:14;45.26;36.94;57.87;;
1754;Laerm;58380;48.312;9.246;2024-01-30T11:11:16;42.41;35.34;52.47;;
1754;Laerm;58380;48.312;9.246;2024-01-30T11:14:22;44.27;34.50;51.19;;
1754;Laerm;58380;48.312;9.246;2024-01-30T11:17:27;44.30;33.13;58.31;;
1754;Laerm;58380;48.312;9.246;2024-01-30T11:20:30;45.97;34.47;74.37;;
1754;Laerm;58380;48.312;9.246;2024-01-30T11:23:35;44.34;35.39;62.08;;
1754;Laerm;58380;48.312;9.246;2024-01-30T11:26:36;47.57;37.44;60.71;;
1754;Laerm;58380;48.312;9.246;2024-01-30T11:29:39;44.14;35.62;57.78;;
1754;Laerm;58380;48.312;9.246;2024-01-30T11:32:40;44.14;36.53;56.90;;
1754;Laerm;58380;48.312;9.246;2024-01-30T11:35:44;47.02;35.24;72.16;;
1754;Laerm;58380;48.312;9.246;2024-01-30T11:38:45;43.22;36.18;54.32;;
1754;Laerm;58380;48.312;9.246;2024-01-30T11:41:50;48.03;36.55;76.29;;
1754;Laerm;58380;48.312;9.246;2024-01-30T11:44:51;44.06;35.14;57.22;;
1754;Laerm;58380;48.312;9.246;2024-01-30T11:47:53;44.01;33.16;60.66;;
1754;Laerm;58380;48.312;9.246;2024-01-30T11:50:54;45.45;36.57;56.66;;
1754;Laerm;58380;48.312;9.246;2024-01-30T11:53:54;45.68;34.68;59.27;;
1754;Laerm;58380;48.312;9.246;2024-01-30T11:56:55;44.45;34.52;53.77;;
1754;Laerm;58380;48.312;9.246;2024-01-30T11:59:55;47.61;39.08;60.96;;
1754;Laerm;58380;48.312;9.246;2024-01-30T12:02:55;44.73;34.71;57.47;;
1754;Laerm;58380;48.312;9.246;2024-01-30T12:05:57;46.53;33.84;56.90;;
1754;Laerm;58380;48.312;9.246;2024-01-30T12:09:03;46.31;35.92;55.34;;
1754;Laerm;58380;48.312;9.246;2024-01-30T12:12:10;46.45;38.48;58.60;;
1754;Laerm;58380;48.312;9.246;2024-01-30T12:15:13;49.04;38.87;60.60;;
1754;Laerm;58380;48.312;9.246;2024-01-30T12:18:13;46.05;37.48;58.79;;
1754;Laerm;58380;48.312;9.246;2024-01-30T12:21:17;49.15;35.34;62.64;;
1754;Laerm;58380;48.312;9.246;2024-01-30T12:24:18;44.59;37.12;58.02;;
1754;Laerm;58380;48.312;9.246;2024-01-30T12:27:18;44.60;36.26;54.30;;
1754;Laerm;58380;48.312;9.246;2024-01-30T12:30:20;45.59;34.51;64.44;;
1754;Laerm;58380;48.312;9.246;2024-01-30T12:33:21;46.31;35.02;59.75;;
1754;Laerm;58380;48.312;9.246;2024-01-30T12:36:22;45.61;35.14;55.88;;
1754;Laerm;58380;48.312;9.246;2024-01-30T12:39:23;45.37;35.22;56.88;;
1754;Laerm;58380;48.312;9.246;2024-01-30T12:42:23;43.40;35.04;56.44;;
1754;Laerm;58380;48.312;9.246;2024-01-30T12:45:25;44.88;36.08;56.55;;
1754;Laerm;58380;48.312;9.246;2024-01-30T12:48:25;46.81;34.28;59.18;;
1754;Laerm;58380;48.312;9.246;2024-01-30T12:51:27;44.57;36.83;55.07;;
1754;Laerm;58380;48.312;9.246;2024-01-30T12:54:27;43.45;31.92;59.81;;
1754;Laerm;58380;48.312;9.246;2024-01-30T12:57:28;53.53;34.62;72.60;;
1754;Laerm;58380;48.312;9.246;2024-01-30T13:00:28;52.92;33.66;67.05;;
1754;Laerm;58380;48.312;9.246;2024-01-30T13:03:29;50.24;32.10;66.31;;
1754;Laerm;58380;48.312;9.246;2024-01-30T13:06:29;47.27;34.01;60.92;;
1754;Laerm;58380;48.312;9.246;2024-01-30T13:09:30;44.93;35.84;58.07;;
1754;Laerm;58380;48.312;9.246;2024-01-30T13:12:32;43.13;36.88;52.43;;
1754;Laerm;58380;48.312;9.246;2024-01-30T13:15:33;40.87;33.56;52.98;;
1754;Laerm;58380;48.312;9.246;2024-01-30T13:18:34;42.62;34.41;59.52;;
1754;Laerm;58380;48.312;9.246;2024-01-30T13:21:34;42.94;34.43;50.43;;
1754;Laerm;58380;48.312;9.246;2024-01-30T13:24:34;45.28;36.03;57.03;;
1754;Laerm;58380;48.312;9.246;2024-01-30T13:27:36;43.04;35.07;51.18;;
1754;Laerm;58380;48.312;9.246;2024-01-30T13:30:37;44.83;34.31;59.85;;
1754;Laerm;58380;48.312;9.246;2024-01-30T13:33:37;42.19;33.15;51.47;;
1754;Laerm;58380;48.312;9.246;2024-01-30T13:36:38;45.82;34.27;60.62;;
1754;Laerm;58380;48.312;9.246;2024-01-30T13:39:38;43.34;32.96;54.05;;
1754;Laerm;58380;48.312;9.246;2024-01-30T13:42:39;45.69;36.11;55.81;;
1754;Laerm;58380;48.312;9.246;2024-01-30T13:45:40;42.97;35.60;53.50;;
1754;Laerm;58380;48.312;9.246;2024-01-30T13:48:42;44.36;33.48;54.90;;
1754;Laerm;58380;48.312;9.246;2024-01-30T13:51:43;44.31;36.67;54.21;;
1754;Laerm;58380;48.312;9.246;2024-01-30T13:54:43;44.29;35.37;53.63;;
1754;Laerm;58380;48.312;9.246;2024-01-30T13:57:46;48.81;35.19;65.82;;
1754;Laerm;58380;48.312;9.246;2024-01-30T14:00:47;45.27;35.90;59.37;;
1754;Laerm;58380;48.312;9.246;2024-01-30T14:03:47;46.35;38.34;61.17;;
1754;Laerm;58380;48.312;9.246;2024-01-30T14:06:48;46.49;32.89;60.23;;
1754;Laerm;58380;48.312;9.246;2024-01-30T14:09:49;46.91;39.25;56.99;;
1754;Laerm;58380;48.312;9.246;2024-01-30T14:12:49;48.52;37.44;64.00;;
1754;Laerm;58380;48.312;9.246;2024-01-30T14:15:49;48.44;36.53;61.34;;
1754;Laerm;58380;48.312;9.246;2024-01-30T14:18:50;43.28;33.87;62.04;;
1754;Laerm;58380;48.312;9.246;2024-01-30T14:21:51;46.34;38.16;57.39;;
1754;Laerm;58380;48.312;9.246;2024-01-30T14:24:51;43.85;35.51;54.96;;
1754;Laerm;58380;48.312;9.246;2024-01-30T14:27:52;49.70;35.23;66.97;;
1754;Laerm;58380;48.312;9.246;2024-01-30T14:30:52;51.40;36.91;68.45;;
1754;Laerm;58380;48.312;9.246;2024-01-30T14:33:53;43.71;36.09;56.18;;
1754;Laerm;58380;48.312;9.246;2024-01-30T14:36:55;46.56;36.85;58.18;;
1754;Laerm;58380;48.312;9.246;2024-01-30T14:39:56;44.20;35.13;57.29;;
1754;Laerm;58380;48.312;9.246;2024-01-30T14:42:56;44.91;36.94;55.74;;
1754;Laerm;58380;48.312;9.246;2024-01-30T14:45:57;46.14;35.17;57.05;;
1754;Laerm;58380;48.312;9.246;2024-01-30T14:48:59;46.25;35.93;59.71;;
1754;Laerm;58380;48.312;9.246;2024-01-30T14:52:00;45.52;37.39;57.29;;
1754;Laerm;58380;48.312;9.246;2024-01-30T14:55:01;49.02;37.24;62.48;;
1754;Laerm;58380;48.312;9.246;2024-01-30T14:58:01;43.80;36.73;58.19;;
1754;Laerm;58380;48.312;9.246;2024-01-30T15:01:02;44.18;35.85;53.83;;
1754;Laerm;58380;48.312;9.246;2024-01-30T15:04:03;41.97;33.68;52.82;;
1754;Laerm;58380;48.312;9.246;2024-01-30T15:07:03;45.93;37.42;60.99;;
1754;Laerm;58380;48.312;9.246;2024-01-30T15:10:04;47.85;37.40;61.01;;
1754;Laerm;58380;48.312;9.246;2024-01-30T15:13:05;45.71;36.20;58.93;;
1754;Laerm;58380;48.312;9.246;2024-01-30T15:16:05;44.07;34.64;50.78;;
1754;Laerm;58380;48.312;9.246;2024-01-30T15:19:06;44.85;36.67;53.45;;
1754;Laerm;58380;48.312;9.246;2024-01-30T15:22:06;46.14;36.94;57.74;;
1754;Laerm;58380;48.312;9.246;2024-01-30T15:25:07;48.94;34.61;65.43;;
1754;Laerm;58380;48.312;9.246;2024-01-30T15:28:08;52.51;36.48;65.08;;
1754;Laerm;58380;48.312;9.246;2024-01-30T15:31:09;53.57;37.40;66.04;;
1754;Laerm;58380;48.312;9.246;2024-01-30T15:34:10;50.45;37.42;64.14;;
1754;Laerm;58380;48.312;9.246;2024-01-30T15:37:10;48.64;38.71;65.41;;
1754;Laerm;58380;48.312;9.246;2024-01-30T15:40:11;46.69;36.29;65.83;;
1754;Laerm;58380;48.312;9.246;2024-01-30T15:43:11;45.03;36.39;65.18;;
1754;Laerm;58380;48.312;9.246;2024-01-30T15:46:12;45.95;35.09;57.55;;
1754;Laerm;58380;48.312;9.246;2024-01-30T15:49:12;44.37;37.87;60.00;;
1754;Laerm;58380;48.312;9.246;2024-01-30T15:52:13;45.39;39.78;55.65;;
1754;Laerm;58380;48.312;9.246;2024-01-30T15:55:16;50.05;37.81;70.21;;
1754;Laerm;58380;48.312;9.246;2024-01-30T15:58:16;46.25;38.56;64.04;;
1754;Laerm;58380;48.312;9.246;2024-01-30T16:01:16;42.16;34.59;53.86;;
1754;Laerm;58380;48.312;9.246;2024-01-30T16:04:17;45.70;36.86;57.08;;
1754;Laerm;58380;48.312;9.246;2024-01-30T16:07:17;49.13;39.50;69.31;;
1754;Laerm;58380;48.312;9.246;2024-01-30T16:10:18;49.66;40.58;59.51;;
1754;Laerm;58380;48.312;9.246;2024-01-30T16:13:19;46.74;38.35;57.53;;
1754;Laerm;58380;48.312;9.246;2024-01-30T16:16:19;46.21;38.25;54.46;;
1754;Laerm;58380;48.312;9.246;2024-01-30T16:19:20;46.43;39.93;52.74;;
1754;Laerm;58380;48.312;9.246;2024-01-30T16:22:20;47.43;39.54;57.21;;
1754;Laerm;58380;48.312;9.246;2024-01-30T16:25:21;46.93;39.24;56.99;;
1754;Laerm;58380;48.312;9.246;2024-01-30T16:28:26;47.89;38.58;64.62;;
1754;Laerm;58380;48.312;9.246;2024-01-30T16:31:26;50.83;41.39;64.99;;
1754;Laerm;58380;48.312;9.246;2024-01-30T16:34:27;44.93;39.13;52.33;;
1754;Laerm;58380;48.312;9.246;2024-01-30T16:37:27;44.68;38.85;51.84;;
1754;Laerm;58380;48.312;9.246;2024-01-30T16:40:28;45.35;40.26;53.76;;
1754;Laerm;58380;48.312;9.246;2024-01-30T16:43:28;46.02;40.62;55.44;;
1754;Laerm;58380;48.312;9.246;2024-01-30T16:46:29;47.35;40.13;54.60;;
1754;Laerm;58380;48.312;9.246;2024-01-30T16:49:29;45.59;36.69;57.22;;
1754;Laerm;58380;48.312;9.246;2024-01-30T16:52:29;43.15;36.18;53.83;;
1754;Laerm;58380;48.312;9.246;2024-01-30T16:55:30;45.66;39.19;63.41;;
1754;Laerm;58380;48.312;9.246;2024-01-30T16:58:30;46.36;38.16;56.35;;
1754;Laerm;58380;48.312;9.246;2024-01-30T17:01:31;47.28;40.43;54.38;;
1754;Laerm;58380;48.312;9.246;2024-01-30T17:04:31;46.25;37.85;51.92;;
1754;Laerm;58380;48.312;9.246;2024-01-30T17:07:33;43.96;36.69;54.74;;
1754;Laerm;58380;48.312;9.246;2024-01-30T17:10:35;45.85;37.31;53.87;;
1754;Laerm;58380;48.312;9.246;2024-01-30T17:13:36;47.02;39.62;53.39;;
1754;Laerm;58380;48.312;9.246;2024-01-30T17:16:37;44.57;37.53;51.89;;
1754;Laerm;58380;48.312;9.246;2024-01-30T17:19:37;47.46;40.94;52.97;;
1754;Laerm;58380;48.312;9.246;2024-01-30T17:22:38;56.84;38.11;79.09;;
1754;Laerm;58380;48.312;9.246;2024-01-30T17:25:39;60.67;42.14;78.46;;
1754;Laerm;58380;48.312;9.246;2024-01-30T17:28:39;46.37;35.22;53.67;;
1754;Laerm;58380;48.312;9.246;2024-01-30T17:31:40;48.07;39.53;57.50;;
1754;Laerm;58380;48.312;9.246;2024-01-30T17:34:40;41.86;33.68;51.46;;
1754;Laerm;58380;48.312;9.246;2024-01-30T17:37:41;44.26;37.17;53.50;;
1754;Laerm;58380;48.312;9.246;2024-01-30T17:40:42;47.11;38.39;57.01;;
1754;Laerm;58380;48.312;9.246;2024-01-30T17:43:42;48.63;39.58;58.89;;
1754;Laerm;58380;48.312;9.246;2024-01-30T17:46:43;42.74;35.76;50.40;;
1754;Laerm;58380;48.312;9.246;2024-01-30T17:49:43;44.59;36.97;52.84;;
1754;Laerm;58380;48.312;9.246;2024-01-30T17:52:43;43.27;36.03;54.59;;
1754;Laerm;58380;48.312;9.246;2024-01-30T17:55:44;46.60;36.18;60.95;;
1754;Laerm;58380;48.312;9.246;2024-01-30T17:58:44;41.54;34.87;51.14;;
1754;Laerm;58380;48.312;9.246;2024-01-30T18:01:48;42.97;36.86;47.96;;
1754;Laerm;58380;48.312;9.246;2024-01-30T18:04:48;45.81;36.43;55.73;;
1754;Laerm;58380;48.312;9.246;2024-01-30T18:07:49;45.69;35.26;53.86;;
1754;Laerm;58380;48.312;9.246;2024-01-30T18:10:49;50.18;35.73;69.11;;
1754;Laerm;58380;48.312;9.246;2024-01-30T18:13:50;52.42;36.38;75.02;;
1754;Laerm;58380;48.312;9.246;2024-01-30T18:16:52;44.97;36.36;53.56;;
1754;Laerm;58380;48.312;9.246;2024-01-30T18:19:52;41.01;34.54;48.42;;
1754;Laerm;58380;48.312;9.246;2024-01-30T18:22:52;41.44;34.59;55.15;;
1754;Laerm;58380;48.312;9.246;2024-01-30T18:25:53;37.03;33.82;46.19;;
1754;Laerm;58380;48.312;9.246;2024-01-30T18:28:59;51.65;36.06;60.32;;
1754;Laerm;58380;48.312;9.246;2024-01-30T18:32:01;41.85;33.83;51.85;;
1754;Laerm;58380;48.312;9.246;2024-01-30T18:35:01;44.14;33.57;55.32;;
1754;Laerm;58380;48.312;9.246;2024-01-30T18:38:02;48.20;39.10;56.93;;
1754;Laerm;58380;48.312;9.246;2024-01-30T18:41:03;45.09;37.33;52.30;;
1754;Laerm;58380;48.312;9.246;2024-01-30T18:44:04;46.18;35.21;55.39;;
1754;Laerm;58380;48.312;9.246;2024-01-30T18:47:04;42.48;33.72;51.91;;
1754;Laerm;58380;48.312;9.246;2024-01-30T18:50:06;46.04;36.44;52.63;;
1754;Laerm;58380;48.312;9.246;2024-01-30T18:53:06;41.19;33.38;50.13;;
1754;Laerm;58380;48.312;9.246;2024-01-30T18:56:06;40.79;35.38;49.08;;
1754;Laerm;58380;48.312;9.246;2024-01-30T18:59:08;47.20;35.93;70.27;;
1754;Laerm;58380;48.312;9.246;2024-01-30T19:02:08;55.70;37.33;78.07;;
1754;Laerm;58380;48.312;9.246;2024-01-30T19:05:09;43.42;35.94;55.92;;
1754;Laerm;58380;48.312;9.246;2024-01-30T19:08:09;40.83;36.26;52.93;;
1754;Laerm;58380;48.312;9.246;2024-01-30T19:11:18;43.70;35.05;53.01;;
1754;Laerm;58380;48.312;9.246;2024-01-30T19:14:19;39.96;34.36;46.71;;
1754;Laerm;58380;48.312;9.246;2024-01-30T19:17:19;40.16;35.07;53.08;;
1754;Laerm;58380;48.312;9.246;2024-01-30T19:20:20;45.39;36.66;58.24;;
1754;Laerm;58380;48.312;9.246;2024-01-30T19:23:22;43.54;35.62;51.70;;
1754;Laerm;58380;48.312;9.246;2024-01-30T19:26:23;42.68;33.82;53.67;;
1754;Laerm;58380;48.312;9.246;2024-01-30T19:29:26;39.75;33.20;51.04;;
1754;Laerm;58380;48.312;9.246;2024-01-30T19:32:27;43.02;34.39;51.44;;
1754;Laerm;58380;48.312;9.246;2024-01-30T19:35:27;41.22;33.82;51.76;;
1754;Laerm;58380;48.312;9.246;2024-01-30T19:38:28;40.83;32.36;49.98;;
1754;Laerm;58380;48.312;9.246;2024-01-30T19:41:28;41.52;33.94;51.10;;
1754;Laerm;58380;48.312;9.246;2024-01-30T19:44:29;39.49;33.36;45.76;;
1754;Laerm;58380;48.312;9.246;2024-01-30T19:47:29;42.04;34.36;49.29;;
1754;Laerm;58380;48.312;9.246;2024-01-30T19:50:29;38.43;33.74;44.75;;
1754;Laerm;58380;48.312;9.246;2024-01-30T19:53:33;43.54;35.01;52.61;;
1754;Laerm;58380;48.312;9.246;2024-01-30T19:56:50;41.46;33.75;49.08;;
1754;Laerm;58380;48.312;9.246;2024-01-30T19:59:54;36.79;33.09;43.92;;
1754;Laerm;58380;48.312;9.246;2024-01-30T20:02:54;41.67;33.23;55.46;;
1754;Laerm;58380;48.312;9.246;2024-01-30T20:05:55;39.43;32.87;51.97;;
1754;Laerm;58380;48.312;9.246;2024-01-30T20:08:57;40.02;33.49;50.18;;
1754;Laerm;58380;48.312;9.246;2024-01-30T20:11:57;37.99;33.38;48.06;;
1754;Laerm;58380;48.312;9.246;2024-01-30T20:14:57;41.63;34.61;56.94;;
1754;Laerm;58380;48.312;9.246;2024-01-30T20:18:01;41.56;34.68;55.25;;
1754;Laerm;58380;48.312;9.246;2024-01-30T20:21:02;43.17;33.72;54.15;;
1754;Laerm;58380;48.312;9.246;2024-01-30T20:24:04;40.53;34.57;48.94;;
1754;Laerm;58380;48.312;9.246;2024-01-30T20:27:04;40.45;32.99;49.08;;
1754;Laerm;58380;48.312;9.246;2024-01-30T20:30:07;39.35;32.41;50.56;;
1754;Laerm;58380;48.312;9.246;2024-01-30T20:33:13;42.83;34.36;52.24;;
1754;Laerm;58380;48.312;9.246;2024-01-30T20:36:16;36.20;32.69;44.12;;
1754;Laerm;58380;48.312;9.246;2024-01-30T20:39:17;40.06;33.24;49.36;;
1754;Laerm;58380;48.312;9.246;2024-01-30T20:42:17;40.50;32.66;50.56;;
1754;Laerm;58380;48.312;9.246;2024-01-30T20:45:19;40.39;32.69;49.34;;
1754;Laerm;58380;48.312;9.246;2024-01-30T20:48:20;39.50;34.00;46.40;;
1754;Laerm;58380;48.312;9.246;2024-01-30T20:51:21;38.92;33.18;49.03;;
1754;Laerm;58380;48.312;9.246;2024-01-30T20:54:21;34.56;31.91;39.19;;
1754;Laerm;58380;48.312;9.246;2024-01-30T20:57:21;39.24;31.42;48.02;;
1754;Laerm;58380;48.312;9.246;2024-01-30T21:00:22;40.22;32.76;48.25;;
1754;Laerm;58380;48.312;9.246;2024-01-30T21:03:22;40.89;31.77;52.22;;
1754;Laerm;58380;48.312;9.246;2024-01-30T21:06:23;41.72;32.89;63.81;;
1754;Laerm;58380;48.312;9.246;2024-01-30T21:09:23;42.28;34.27;52.80;;
1754;Laerm;58380;48.312;9.246;2024-01-30T21:12:24;40.61;34.35;49.45;;
1754;Laerm;58380;48.312;9.246;2024-01-30T21:15:24;42.33;33.54;50.78;;
1754;Laerm;58380;48.312;9.246;2024-01-30T21:18:25;39.58;33.29;50.62;;
1754;Laerm;58380;48.312;9.246;2024-01-30T21:21:25;38.89;33.21;52.86;;
1754;Laerm;58380;48.312;9.246;2024-01-30T21:24:25;42.48;34.45;52.83;;
1754;Laerm;58380;48.312;9.246;2024-01-30T21:27:26;39.00;32.80;49.93;;
1754;Laerm;58380;48.312;9.246;2024-01-30T21:30:26;40.08;32.51;56.76;;
1754;Laerm;58380;48.312;9.246;2024-01-30T21:33:27;42.03;34.14;53.03;;
1754;Laerm;58380;48.312;9.246;2024-01-30T21:36:28;43.20;34.01;54.18;;
1754;Laerm;58380;48.312;9.246;2024-01-30T21:39:29;43.14;35.35;55.94;;
1754;Laerm;58380;48.312;9.246;2024-01-30T21:42:30;42.07;32.91;51.28;;
1754;Laerm;58380;48.312;9.246;2024-01-30T21:45:30;44.58;32.97;55.21;;
1754;Laerm;58380;48.312;9.246;2024-01-30T21:48:31;40.25;33.02;58.04;;
1754;Laerm;58380;48.312;9.246;2024-01-30T21:51:31;37.59;33.40;49.12;;
1754;Laerm;58380;48.312;9.246;2024-01-30T21:54:31;37.42;32.54;51.28;;
1754;Laerm;58380;48.312;9.246;2024-01-30T21:57:32;39.14;33.31;47.56;;
1754;Laerm;58380;48.312;9.246;2024-01-30T22:00:32;38.43;33.03;48.99;;
1754;Laerm;58380;48.312;9.246;2024-01-30T22:03:33;37.13;31.68;48.65;;
1754;Laerm;58380;48.312;9.246;2024-01-30T22:06:34;37.78;32.59;47.63;;
1754;Laerm;58380;48.312;9.246;2024-01-30T22:09:35;33.85;31.55;36.98;;
1754;Laerm;58380;48.312;9.246;2024-01-30T22:12:35;36.47;32.42;47.59;;
1754;Laerm;58380;48.312;9.246;2024-01-30T22:15:37;36.45;31.84;44.20;;
1754;Laerm;58380;48.312;9.246;2024-01-30T22:18:40;37.55;31.72;47.22;;
